Time;durP1;ratioP1;P1;durP2;ratioP2;P2;SDS_P1;SDS_P2;PMS_P1;PMS_P2;Temp;Humidity;BMP_temperature;BMP_pressure;BME280_temperature;BME280_humidity;BME280_pressure;Samples;Min_cycle;Max_cycle;Signal;HPM_P1;HPM_P2
2023/11/09 00:00:37;;;;;;;20.63;4.88;;;7.20;99.90;;;;;;4996342;28;20034;-59
2023/11/09 00:03:04;;;;;;;14.32;4.00;;;7.20;99.90;;;;;;4996315;28;20046;-60
2023/11/09 00:05:31;;;;;;;13.50;3.55;;;7.20;99.90;;;;;;4996484;28;20046;-59
2023/11/09 00:07:57;;;;;;;21.10;4.45;;;7.30;99.90;;;;;;4996536;28;20050;-64
2023/11/09 00:10:24;;;;;;;19.52;3.75;;;7.30;99.90;;;;;;4995988;28;20046;-65
2023/11/09 00:12:53;;;;;;;13.45;3.38;;;7.30;99.90;;;;;;4996335;28;20048;-65
2023/11/09 00:15:24;;;;;;;16.60;3.78;;;7.30;99.90;;;;;;4996193;28;20042;-65
2023/11/09 00:17:51;;;;;;;14.65;4.50;;;7.30;99.90;;;;;;4994793;28;20050;-65
2023/11/09 00:20:20;;;;;;;16.85;3.85;;;7.30;99.90;;;;;;4996046;28;20041;-60
2023/11/09 00:22:47;;;;;;;18.38;4.00;;;7.30;99.90;;;;;;4996295;28;20109;-60
2023/11/09 00:25:14;;;;;;;22.95;4.47;;;7.30;99.90;;;;;;4996382;28;20046;-59
2023/11/09 00:27:41;;;;;;;20.23;5.40;;;7.30;99.90;;;;;;4995923;28;20495;-59
2023/11/09 00:30:07;;;;;;;16.70;4.05;;;7.30;99.90;;;;;;4995704;28;20046;-59
2023/11/09 00:32:34;;;;;;;21.42;3.72;;;7.30;99.90;;;;;;4994588;28;20047;-59
2023/11/09 00:35:01;;;;;;;21.50;4.63;;;7.30;99.90;;;;;;4994709;28;20464;-65
2023/11/09 00:37:30;;;;;;;13.93;3.50;;;7.30;99.90;;;;;;4995537;28;20046;-66
2023/11/09 00:39:56;;;;;;;15.85;3.78;;;7.30;99.90;;;;;;4995412;28;20528;-65
2023/11/09 00:42:24;;;;;;;13.50;3.70;;;7.30;99.90;;;;;;4995476;28;20108;-65
2023/11/09 00:44:51;;;;;;;16.30;3.20;;;7.30;99.90;;;;;;4995390;28;20038;-65
2023/11/09 00:47:18;;;;;;;15.88;3.83;;;7.30;99.90;;;;;;4995770;28;20093;-66
2023/11/09 00:49:44;;;;;;;13.82;3.15;;;7.30;99.90;;;;;;4995297;28;20042;-66
2023/11/09 00:52:11;;;;;;;17.90;3.60;;;7.20;99.90;;;;;;4993701;28;20070;-66
2023/11/09 00:54:38;;;;;;;16.67;3.92;;;7.20;99.90;;;;;;4993864;28;20118;-59
2023/11/09 00:57:05;;;;;;;18.60;4.00;;;7.30;99.90;;;;;;4995375;28;20389;-59
2023/11/09 00:59:32;;;;;;;12.90;3.53;;;7.20;99.90;;;;;;4994851;28;20067;-59
2023/11/09 01:01:59;;;;;;;18.08;4.30;;;7.30;99.90;;;;;;4995095;28;20050;-64
2023/11/09 01:04:26;;;;;;;15.65;3.70;;;7.20;99.90;;;;;;4993553;28;20126;-64
2023/11/09 01:06:53;;;;;;;18.25;4.45;;;7.30;99.90;;;;;;4993064;28;20415;-65
2023/11/09 01:09:20;;;;;;;17.17;3.35;;;7.20;99.90;;;;;;4995193;28;20050;-59
2023/11/09 01:11:47;;;;;;;17.35;4.15;;;7.30;99.90;;;;;;4993426;28;20133;-65
2023/11/09 01:14:15;;;;;;;16.50;3.90;;;7.30;99.90;;;;;;4993632;28;20046;-66
2023/11/09 01:16:42;;;;;;;17.52;4.05;;;7.30;99.90;;;;;;4994685;28;20038;-65
2023/11/09 01:19:09;;;;;;;20.27;3.92;;;7.30;99.90;;;;;;4993383;28;20038;-65
2023/11/09 01:21:36;;;;;;;17.70;4.10;;;7.30;99.90;;;;;;4993928;28;20053;-59
2023/11/09 01:24:03;;;;;;;16.30;3.58;;;7.30;99.90;;;;;;4994755;28;20038;-59
2023/11/09 01:26:30;;;;;;;16.20;4.10;;;7.20;99.90;;;;;;4993732;28;20050;-59
2023/11/09 01:28:57;;;;;;;16.30;3.58;;;7.30;99.90;;;;;;4994587;28;20047;-64
2023/11/09 01:31:24;;;;;;;20.02;3.92;;;7.30;99.90;;;;;;4994694;28;20054;-65
2023/11/09 01:33:50;;;;;;;17.27;3.92;;;7.30;99.90;;;;;;4994609;28;20038;-65
2023/11/09 01:36:22;;;;;;;16.52;3.63;;;7.30;99.90;;;;;;4993491;28;20480;-65
2023/11/09 01:38:49;;;;;;;17.95;3.78;;;7.30;99.90;;;;;;4994624;28;20042;-65
2023/11/09 01:41:16;;;;;;;16.15;4.00;;;7.30;99.90;;;;;;4994397;28;20073;-66
2023/11/09 01:43:43;;;;;;;15.13;3.20;;;7.30;99.90;;;;;;4976774;28;20113;-65
2023/11/09 01:46:11;;;;;;;15.95;4.07;;;7.30;99.90;;;;;;4995264;28;20069;-65
2023/11/09 01:48:38;;;;;;;20.65;3.85;;;7.30;99.90;;;;;;4994307;28;20039;-65
2023/11/09 01:51:05;;;;;;;17.35;3.78;;;7.30;99.90;;;;;;4993280;28;20074;-65
2023/11/09 01:53:31;;;;;;;18.92;3.97;;;7.30;99.90;;;;;;4993567;28;20049;-66
2023/11/09 01:55:58;;;;;;;17.67;3.70;;;7.30;99.90;;;;;;4994539;28;20042;-65
2023/11/09 01:58:25;;;;;;;19.30;4.20;;;7.30;99.90;;;;;;4994493;28;20046;-60
2023/11/09 02:00:52;;;;;;;22.85;3.63;;;7.30;99.90;;;;;;4993193;28;20113;-59
2023/11/09 02:03:18;;;;;;;22.30;4.40;;;7.30;99.90;;;;;;4992706;28;20491;-59
2023/11/09 02:05:45;;;;;;;17.55;3.53;;;7.30;99.90;;;;;;4992936;28;20101;-59
2023/11/09 02:08:12;;;;;;;13.20;3.13;;;7.30;99.90;;;;;;4994491;28;20052;-59
2023/11/09 02:10:39;;;;;;;14.10;3.08;;;7.30;99.90;;;;;;4997315;28;20121;-59
2023/11/09 02:13:06;;;;;;;17.25;3.03;;;7.30;99.90;;;;;;4995475;28;20038;-64
2023/11/09 02:15:33;;;;;;;21.40;4.28;;;7.30;99.90;;;;;;4993801;28;20056;-65
2023/11/09 02:17:59;;;;;;;19.63;3.38;;;7.30;99.90;;;;;;4992427;28;20511;-66
2023/11/09 02:20:26;;;;;;;21.20;4.20;;;7.30;99.90;;;;;;4994115;28;20125;-66
2023/11/09 02:22:53;;;;;;;15.75;3.22;;;7.30;99.90;;;;;;4992609;28;20047;-65
2023/11/09 02:25:20;;;;;;;23.42;4.32;;;7.30;99.90;;;;;;4993801;28;20145;-65
2023/11/09 02:27:47;;;;;;;14.15;3.20;;;7.30;99.90;;;;;;4992913;28;20066;-65
2023/11/09 02:30:14;;;;;;;20.33;3.90;;;7.30;99.90;;;;;;4993976;28;20069;-65
2023/11/09 02:32:42;;;;;;;22.92;3.58;;;7.30;99.90;;;;;;4992970;28;20080;-65
2023/11/09 02:35:09;;;;;;;17.20;3.53;;;7.20;99.90;;;;;;4976641;28;20133;-65
2023/11/09 02:37:36;;;;;;;17.13;3.63;;;7.30;99.90;;;;;;4994134;28;20490;-60
2023/11/09 02:40:04;;;;;;;23.13;4.40;;;7.30;99.90;;;;;;4993821;28;20073;-59
2023/11/09 02:42:31;;;;;;;17.38;3.83;;;7.20;99.90;;;;;;4993390;28;20061;-59
2023/11/09 02:44:57;;;;;;;21.20;3.80;;;7.20;99.90;;;;;;4992318;28;20054;-59
2023/11/09 02:47:24;;;;;;;17.65;3.58;;;7.20;99.90;;;;;;4993746;28;20046;-59
2023/11/09 02:49:51;;;;;;;18.33;4.00;;;7.20;99.90;;;;;;4993856;28;20435;-58
2023/11/09 02:52:18;;;;;;;18.55;3.40;;;7.20;99.90;;;;;;4992738;28;20042;-59
2023/11/09 02:54:45;;;;;;;18.75;3.58;;;7.20;99.90;;;;;;4993622;28;20038;-59
2023/11/09 02:57:11;;;;;;;25.15;4.10;;;7.30;99.90;;;;;;4993292;28;20042;-59
2023/11/09 02:59:38;;;;;;;17.95;3.95;;;7.30;99.90;;;;;;4993445;28;20427;-58
2023/11/09 03:02:06;;;;;;;22.27;3.97;;;7.30;99.90;;;;;;4992230;28;20038;-60
2023/11/09 03:04:34;;;;;;;16.65;3.65;;;7.30;99.90;;;;;;4993468;28;20129;-58
2023/11/09 03:07:00;;;;;;;20.20;3.20;;;7.40;99.90;;;;;;4993350;28;20518;-59
2023/11/09 03:09:27;;;;;;;18.83;3.75;;;7.40;99.90;;;;;;4993035;28;20407;-59
2023/11/09 03:11:54;;;;;;;20.08;3.22;;;7.50;99.90;;;;;;4991926;28;20435;-58
2023/11/09 03:14:21;;;;;;;19.70;3.88;;;7.40;99.90;;;;;;4993451;28;20038;-58
2023/11/09 03:16:48;;;;;;;15.70;3.72;;;7.50;99.90;;;;;;4993251;28;20051;-59
2023/11/09 03:19:15;;;;;;;23.98;4.45;;;7.60;99.90;;;;;;4993330;28;20130;-59
2023/11/09 03:21:42;;;;;;;19.08;3.40;;;7.60;99.90;;;;;;4992488;28;20480;-58
2023/11/09 03:24:09;;;;;;;24.77;3.85;;;7.60;99.90;;;;;;4993609;28;20069;-59
2023/11/09 03:26:37;;;;;;;12.93;3.13;;;7.60;99.90;;;;;;4992457;28;20034;-58
2023/11/09 03:29:05;;;;;;;16.60;3.15;;;7.60;99.90;;;;;;4993139;28;20101;-58
2023/11/09 03:31:32;;;;;;;18.42;3.40;;;7.60;99.90;;;;;;4996959;28;20125;-59
2023/11/09 03:33:58;;;;;;;20.35;3.90;;;7.70;99.90;;;;;;4997174;28;20494;-58
2023/11/09 03:36:25;;;;;;;21.67;3.45;;;7.60;99.90;;;;;;4995658;28;20364;-58
2023/11/09 03:38:52;;;;;;;18.25;3.58;;;7.60;99.90;;;;;;4996788;28;20391;-58
2023/11/09 03:41:20;;;;;;;17.27;3.65;;;7.60;99.90;;;;;;4996403;28;20042;-58
2023/11/09 03:43:47;;;;;;;24.55;4.70;;;7.60;99.90;;;;;;4995339;28;20527;-59
2023/11/09 03:46:13;;;;;;;23.33;3.80;;;7.60;99.90;;;;;;4996811;28;20104;-59
2023/11/09 03:48:40;;;;;;;16.60;3.10;;;7.60;99.90;;;;;;4996326;28;20518;-59
2023/11/09 03:51:07;;;;;;;21.80;3.97;;;7.60;99.90;;;;;;4996797;28;20073;-58
2023/11/09 03:53:34;;;;;;;19.60;4.25;;;7.60;99.90;;;;;;4996275;28;20391;-59
2023/11/09 03:56:01;;;;;;;18.63;3.22;;;7.60;99.90;;;;;;4996623;28;20400;-58
2023/11/09 03:58:28;;;;;;;22.60;4.20;;;7.70;99.90;;;;;;4995920;28;20043;-58
2023/11/09 04:00:54;;;;;;;17.38;3.72;;;7.70;99.90;;;;;;4996636;28;20538;-58
2023/11/09 04:03:21;;;;;;;18.58;4.03;;;7.70;99.90;;;;;;4995958;28;20054;-58
2023/11/09 04:05:48;;;;;;;25.55;4.65;;;7.80;99.90;;;;;;4996610;28;20042;-59
2023/11/09 04:08:15;;;;;;;18.60;2.95;;;7.80;99.90;;;;;;4996200;28;20046;-57
2023/11/09 04:10:42;;;;;;;23.20;3.45;;;7.90;99.90;;;;;;4996346;28;20050;-58
2023/11/09 04:13:08;;;;;;;23.55;4.72;;;7.90;99.90;;;;;;4996199;28;20085;-59
2023/11/09 04:15:35;;;;;;;15.55;3.28;;;8.00;99.90;;;;;;4996127;28;20349;-58
2023/11/09 04:18:02;;;;;;;15.05;3.45;;;8.00;99.90;;;;;;4995763;28;20062;-58
2023/11/09 04:20:29;;;;;;;24.88;4.20;;;8.10;99.90;;;;;;4996456;28;20480;-59
2023/11/09 04:22:55;;;;;;;20.25;3.90;;;8.10;99.90;;;;;;4996043;28;20046;-58
2023/11/09 04:25:22;;;;;;;15.57;3.40;;;8.20;99.90;;;;;;4995959;28;20038;-59
2023/11/09 04:27:50;;;;;;;23.92;3.20;;;8.20;99.90;;;;;;4995934;28;20404;-58
2023/11/09 04:30:20;;;;;;;26.80;3.83;;;8.20;99.90;;;;;;4996233;28;20400;-57
2023/11/09 04:32:51;;;;;;;16.35;3.50;;;8.30;99.90;;;;;;4996716;28;20047;-65
2023/11/09 04:35:20;;;;;;;18.08;3.55;;;8.30;99.90;;;;;;4996080;28;20109;-65
2023/11/09 04:37:49;;;;;;;16.00;2.97;;;8.30;99.90;;;;;;4995554;28;20157;-64
2023/11/09 04:40:16;;;;;;;20.40;3.40;;;8.30;99.90;;;;;;4994813;28;20038;-65
2023/11/09 04:42:43;;;;;;;18.70;3.58;;;8.30;99.90;;;;;;4995541;28;20054;-65
2023/11/09 04:45:11;;;;;;;19.85;3.50;;;8.30;99.90;;;;;;4995448;28;20058;-65
2023/11/09 04:47:41;;;;;;;24.90;3.72;;;8.30;99.90;;;;;;4995614;28;20050;-58
2023/11/09 04:50:13;;;;;;;15.18;3.50;;;8.40;99.90;;;;;;4995717;28;20049;-58
2023/11/09 04:52:44;;;;;;;26.67;4.07;;;8.40;99.90;;;;;;4995436;28;20089;-58
2023/11/09 04:55:12;;;;;;;22.48;3.85;;;8.40;99.90;;;;;;4994115;28;20065;-59
2023/11/09 05:08:41;;;;;;;18.75;3.75;;;8.40;99.90;;;;;;4995077;28;20050;-59
2023/11/09 05:11:13;;;;;;;20.17;3.35;;;8.40;99.90;;;;;;4995143;28;20046;-65
2023/11/09 05:13:40;;;;;;;22.55;4.25;;;8.40;99.90;;;;;;4995276;28;20043;-65
2023/11/09 05:16:07;;;;;;;19.05;3.28;;;8.40;99.90;;;;;;4995064;28;20490;-65
2023/11/09 05:18:34;;;;;;;20.92;3.60;;;8.40;99.90;;;;;;4994556;28;20545;-65
2023/11/09 05:21:02;;;;;;;20.35;3.78;;;8.40;99.90;;;;;;4995104;28;20050;-65
2023/11/09 05:23:29;;;;;;;14.75;2.95;;;8.50;99.90;;;;;;4994715;28;20129;-65
2023/11/09 05:25:55;;;;;;;21.35;3.33;;;8.50;99.90;;;;;;4994731;28;20054;-65
2023/11/09 05:28:22;;;;;;;18.85;3.85;;;8.50;99.90;;;;;;4994413;28;20046;-65
2023/11/09 05:30:52;;;;;;;23.88;3.67;;;8.50;99.90;;;;;;4994848;28;20117;-65
2023/11/09 05:33:19;;;;;;;17.27;4.18;;;8.50;99.90;;;;;;4994955;28;20065;-65
2023/11/09 05:35:45;;;;;;;17.27;3.35;;;8.50;99.90;;;;;;4994395;28;20046;-65
2023/11/09 05:38:13;;;;;;;15.43;3.25;;;8.50;99.90;;;;;;4994324;28;20050;-59
2023/11/09 05:40:40;;;;;;;20.40;3.53;;;8.50;99.90;;;;;;4994212;28;20038;-59
2023/11/09 05:43:09;;;;;;;19.40;3.85;;;8.50;99.90;;;;;;4994211;28;20447;-59
2023/11/09 05:45:36;;;;;;;16.55;3.30;;;8.50;99.90;;;;;;4994586;28;20077;-59
2023/11/09 05:48:03;;;;;;;20.58;3.63;;;8.50;99.90;;;;;;4994764;28;20042;-59
2023/11/09 05:50:31;;;;;;;21.92;3.65;;;8.50;99.90;;;;;;4994468;28;20563;-59
2023/11/09 05:52:58;;;;;;;17.65;3.60;;;8.50;99.90;;;;;;4994080;28;20038;-59
2023/11/09 05:55:25;;;;;;;20.20;3.03;;;8.50;99.90;;;;;;4994089;28;20038;-59
2023/11/09 05:57:52;;;;;;;19.08;4.00;;;8.50;99.90;;;;;;4994469;28;20056;-59
2023/11/09 06:00:19;;;;;;;22.05;3.75;;;8.50;99.90;;;;;;4993260;28;20484;-58
2023/11/09 06:02:46;;;;;;;15.40;3.60;;;8.50;99.90;;;;;;4994598;28;20042;-58
2023/11/09 06:05:13;;;;;;;21.75;3.45;;;8.60;99.90;;;;;;4993981;28;20051;-59
2023/11/09 06:07:40;;;;;;;12.80;3.28;;;8.60;99.90;;;;;;4993125;28;20105;-59
2023/11/09 06:10:09;;;;;;;13.65;3.28;;;8.60;99.90;;;;;;4994449;28;20050;-59
2023/11/09 06:12:36;;;;;;;14.48;2.42;;;8.60;99.90;;;;;;4993832;28;20046;-59
2023/11/09 06:15:04;;;;;;;18.77;3.83;;;8.70;99.90;;;;;;4993865;28;20046;-59
2023/11/09 06:17:31;;;;;;;13.25;2.72;;;8.70;99.90;;;;;;4993745;28;20080;-59
2023/11/09 06:19:59;;;;;;;21.13;4.00;;;8.70;99.90;;;;;;4994100;28;20384;-58
2023/11/09 06:22:26;;;;;;;13.63;3.10;;;8.70;99.90;;;;;;4993616;28;20405;-59
2023/11/09 06:24:53;;;;;;;15.75;3.45;;;8.80;99.90;;;;;;4993768;28;20100;-59
2023/11/09 06:27:20;;;;;;;16.88;3.25;;;8.80;99.90;;;;;;4993715;28;20050;-59
2023/11/09 06:29:47;;;;;;;18.27;3.35;;;8.80;99.90;;;;;;4993687;28;20100;-59
2023/11/09 06:32:14;;;;;;;15.43;3.08;;;8.80;99.90;;;;;;4992815;28;20042;-59
2023/11/09 06:34:42;;;;;;;14.13;3.40;;;8.70;99.90;;;;;;4992484;28;20451;-58
2023/11/09 06:37:08;;;;;;;15.80;3.20;;;8.70;99.90;;;;;;4994449;28;20051;-59
2023/11/09 06:39:35;;;;;;;15.70;3.13;;;8.70;99.90;;;;;;4994356;28;20038;-59
2023/11/09 06:42:02;;;;;;;19.48;3.50;;;8.70;99.90;;;;;;4993771;28;20059;-60
2023/11/09 06:44:29;;;;;;;18.55;3.22;;;8.70;99.90;;;;;;4993811;28;20487;-64
2023/11/09 06:46:58;;;;;;;13.48;3.08;;;8.60;99.90;;;;;;4994336;28;20061;-65
2023/11/09 06:49:25;;;;;;;17.25;3.20;;;8.60;99.90;;;;;;4994383;28;20479;-65
2023/11/09 06:51:53;;;;;;;14.32;2.78;;;8.60;99.90;;;;;;4995006;28;20042;-59
2023/11/09 06:54:20;;;;;;;15.32;3.45;;;8.60;99.90;;;;;;4994138;28;20042;-59
2023/11/09 06:56:46;;;;;;;16.98;3.08;;;8.50;99.90;;;;;;4993657;28;20047;-59
2023/11/09 06:59:13;;;;;;;15.88;3.10;;;8.50;99.90;;;;;;4993309;28;20042;-59
2023/11/09 07:01:41;;;;;;;15.40;2.63;;;8.50;99.90;;;;;;4993313;28;20049;-59
2023/11/09 07:04:09;;;;;;;8.60;2.38;;;8.40;99.90;;;;;;4993518;28;20057;-58
2023/11/09 07:06:35;;;;;;;11.18;2.47;;;8.40;99.90;;;;;;4997798;28;20038;-58
2023/11/09 07:09:03;;;;;;;13.40;2.92;;;8.30;99.90;;;;;;4997720;28;20053;-65
2023/11/09 07:11:31;;;;;;;14.45;3.05;;;8.20;99.90;;;;;;4998006;28;20038;-65
2023/11/09 07:13:57;;;;;;;12.75;3.00;;;8.10;99.90;;;;;;4997088;28;20142;-66
2023/11/09 07:16:24;;;;;;;14.80;2.50;;;8.10;99.90;;;;;;4996145;28;20045;-64
2023/11/09 07:18:52;;;;;;;17.88;3.20;;;8.10;99.90;;;;;;4995909;28;20045;-66
2023/11/09 07:21:21;;;;;;;15.95;2.97;;;8.00;99.90;;;;;;4997523;28;20047;-65
2023/11/09 07:23:50;;;;;;;11.68;2.63;;;7.90;99.90;;;;;;5014596;28;20045;-65
2023/11/09 07:26:17;;;;;;;14.00;2.60;;;7.90;99.90;;;;;;5036186;28;20069;-65
2023/11/09 07:28:44;;;;;;;11.27;3.10;;;7.80;99.90;;;;;;5036176;28;20041;-65
2023/11/09 07:31:11;;;;;;;13.05;3.30;;;7.80;99.90;;;;;;5036365;28;20048;-65
2023/11/09 07:33:39;;;;;;;8.75;2.22;;;7.70;99.90;;;;;;5036316;28;20099;-65
2023/11/09 07:36:06;;;;;;;15.45;2.50;;;7.70;99.90;;;;;;5035867;28;20034;-65
2023/11/09 07:38:33;;;;;;;15.57;3.15;;;7.80;99.90;;;;;;5036470;28;20045;-64
2023/11/09 07:40:59;;;;;;;12.77;2.33;;;7.70;99.90;;;;;;5035608;28;20085;-64
2023/11/09 07:43:26;;;;;;;15.93;2.47;;;7.80;99.90;;;;;;5036313;28;20393;-65
2023/11/09 07:45:53;;;;;;;12.35;2.58;;;7.80;99.90;;;;;;5036306;28;20099;-65
2023/11/09 07:48:22;;;;;;;10.95;3.22;;;7.80;99.90;;;;;;5035714;28;20398;-66
2023/11/09 07:50:50;;;;;;;12.07;2.08;;;7.80;99.90;;;;;;5036112;28;20052;-64
2023/11/09 07:53:16;;;;;;;12.10;2.03;;;7.80;99.90;;;;;;5035701;28;20041;-65
2023/11/09 07:55:44;;;;;;;10.35;1.92;;;7.80;99.90;;;;;;5036002;28;20073;-65
2023/11/09 07:58:12;;;;;;;9.52;2.15;;;7.90;99.90;;;;;;5035565;28;20510;-65
2023/11/09 08:00:40;;;;;;;10.80;2.20;;;7.90;99.90;;;;;;5036069;28;20107;-65
2023/11/09 08:03:09;;;;;;;11.13;2.05;;;8.00;99.90;;;;;;5036043;28;20046;-65
2023/11/09 08:05:41;;;;;;;10.77;2.20;;;8.00;99.90;;;;;;5035562;28;20037;-65
2023/11/09 08:08:10;;;;;;;8.75;1.85;;;8.10;99.90;;;;;;5035783;28;20120;-64
2023/11/09 08:10:37;;;;;;;8.63;1.98;;;8.20;99.90;;;;;;5035514;28;20434;-64
2023/11/09 08:13:05;;;;;;;9.18;1.60;;;8.20;99.90;;;;;;5035301;28;20056;-65
2023/11/09 08:15:32;;;;;;;7.10;1.45;;;8.30;99.90;;;;;;5033281;28;20033;-56
2023/11/09 08:17:59;;;;;;;5.18;1.77;;;8.40;99.90;;;;;;5004064;28;20056;-58
2023/11/09 08:20:25;;;;;;;5.35;1.52;;;8.50;99.90;;;;;;5014205;28;20122;-58
2023/11/09 08:22:52;;;;;;;8.43;1.40;;;8.60;99.90;;;;;;5014041;28;20053;-59
2023/11/09 08:25:19;;;;;;;9.45;1.67;;;8.70;99.90;;;;;;5014869;28;20041;-59
2023/11/09 08:27:46;;;;;;;9.10;1.23;;;8.70;99.90;;;;;;5014260;28;20077;-58
2023/11/09 08:30:15;;;;;;;7.78;2.22;;;8.80;99.90;;;;;;5014512;28;20045;-59
2023/11/09 08:32:46;;;;;;;8.15;1.65;;;8.80;99.90;;;;;;5014400;28;20450;-59
2023/11/09 08:35:15;;;;;;;11.05;2.08;;;8.80;99.90;;;;;;5014214;28;20045;-59
2023/11/09 08:37:41;;;;;;;10.13;1.80;;;8.90;99.90;;;;;;5013487;28;20040;-59
2023/11/09 08:40:16;;;;;;;11.63;1.70;;;8.90;99.90;;;;;;5014196;28;20399;-59
2023/11/09 08:42:44;;;;;;;3.85;1.38;;;8.90;99.90;;;;;;5014192;28;20100;-59
2023/11/09 08:45:11;;;;;;;8.73;1.58;;;8.90;99.90;;;;;;5014274;28;20140;-58
2023/11/09 08:47:38;;;;;;;8.82;1.80;;;8.90;99.90;;;;;;5014029;28;20046;-58
2023/11/09 08:50:09;;;;;;;8.02;1.40;;;8.90;99.90;;;;;;5014124;28;20056;-66
2023/11/09 08:52:36;;;;;;;9.77;1.75;;;8.90;99.90;;;;;;5014344;28;20073;-65
2023/11/09 08:55:04;;;;;;;8.50;2.10;;;9.00;99.90;;;;;;5014096;28;20057;-66
2023/11/09 08:57:32;;;;;;;7.32;2.15;;;8.90;99.90;;;;;;5013822;28;20072;-64
2023/11/09 09:00:02;;;;;;;7.60;1.77;;;9.00;99.90;;;;;;5014009;28;20038;-66
2023/11/09 09:02:31;;;;;;;8.95;2.42;;;9.00;99.90;;;;;;5015771;28;20037;-65
2023/11/09 09:05:00;;;;;;;7.78;1.60;;;9.00;99.90;;;;;;5008650;28;20545;-65
2023/11/09 09:07:27;;;;;;;9.82;1.95;;;9.00;99.90;;;;;;5008340;28;20061;-65
2023/11/09 09:09:54;;;;;;;4.88;1.65;;;9.00;99.90;;;;;;5007591;28;20061;-65
2023/11/09 09:12:21;;;;;;;5.45;1.77;;;9.00;99.90;;;;;;5007568;28;20057;-64
2023/11/09 09:14:51;;;;;;;8.77;1.80;;;9.00;99.90;;;;;;5007057;28;20045;-64
2023/11/09 09:17:18;;;;;;;7.05;1.60;;;9.00;99.90;;;;;;5007620;28;20121;-65
2023/11/09 09:19:46;;;;;;;4.07;1.20;;;9.10;99.90;;;;;;5007337;28;20122;-65
2023/11/09 09:22:16;;;;;;;5.72;1.33;;;9.10;99.90;;;;;;5007605;28;20045;-64
2023/11/09 09:24:43;;;;;;;6.63;1.40;;;9.10;99.90;;;;;;5007641;28;20479;-64
2023/11/09 09:27:10;;;;;;;9.43;1.98;;;9.10;99.90;;;;;;5012627;28;20038;-63
2023/11/09 09:29:37;;;;;;;5.70;1.13;;;9.10;99.90;;;;;;5013252;28;20414;-64
2023/11/09 09:32:04;;;;;;;7.18;1.73;;;9.10;99.90;;;;;;5013612;28;20045;-64
2023/11/09 09:34:31;;;;;;;6.07;1.73;;;9.10;99.90;;;;;;5013377;28;20038;-64
2023/11/09 09:36:58;;;;;;;9.02;1.85;;;9.10;99.90;;;;;;5013370;28;20044;-64
2023/11/09 09:39:27;;;;;;;5.38;1.65;;;9.20;99.90;;;;;;5013052;28;20029;-64
2023/11/09 09:41:58;;;;;;;6.60;1.40;;;9.20;99.90;;;;;;5011041;28;20099;-65
2023/11/09 09:44:26;;;;;;;5.63;1.60;;;9.30;99.90;;;;;;5013349;28;20052;-64
2023/11/09 09:46:53;;;;;;;6.10;1.40;;;9.30;99.90;;;;;;5013075;28;20464;-64
2023/11/09 09:49:21;;;;;;;6.18;1.20;;;9.40;99.90;;;;;;5012869;28;20069;-63
2023/11/09 09:51:49;;;;;;;5.25;1.15;;;9.50;99.90;;;;;;5012825;28;20136;-63
2023/11/09 09:54:18;;;;;;;7.03;1.50;;;9.60;99.90;;;;;;5013235;28;20046;-64
2023/11/09 09:56:47;;;;;;;6.40;1.92;;;9.60;99.90;;;;;;5013068;28;20038;-65
2023/11/09 09:59:14;;;;;;;6.32;1.58;;;9.70;99.90;;;;;;5012773;28;20092;-65
2023/11/09 10:01:42;;;;;;;5.53;2.22;;;9.70;99.90;;;;;;5012899;28;20125;-64
2023/11/09 10:04:09;;;;;;;5.07;1.65;;;9.70;99.90;;;;;;5012789;28;20050;-58
2023/11/09 10:06:37;;;;;;;9.35;1.73;;;9.70;99.90;;;;;;5012953;28;20042;-57
2023/11/09 10:09:05;;;;;;;8.80;1.73;;;9.70;99.90;;;;;;5013049;28;20108;-64
2023/11/09 10:11:32;;;;;;;6.25;1.60;;;9.70;99.90;;;;;;5012883;28;20048;-57
2023/11/09 10:14:00;;;;;;;4.50;1.23;;;9.60;99.90;;;;;;5012708;28;20045;-58
2023/11/09 10:16:28;;;;;;;7.40;1.83;;;9.60;99.90;;;;;;5012876;28;20042;-64
2023/11/09 10:18:56;;;;;;;7.82;1.50;;;9.60;99.90;;;;;;5012581;28;20042;-58
2023/11/09 10:21:25;;;;;;;5.82;2.20;;;9.60;99.90;;;;;;5012738;28;20065;-57
2023/11/09 10:23:53;;;;;;;8.43;1.50;;;9.60;99.90;;;;;;5012878;28;20071;-58
2023/11/09 10:26:20;;;;;;;10.40;1.95;;;9.60;99.90;;;;;;5012906;28;20038;-64
2023/11/09 10:28:47;;;;;;;8.70;1.52;;;9.60;99.90;;;;;;5012652;28;20064;-65
2023/11/09 10:31:16;;;;;;;6.05;1.45;;;9.60;99.90;;;;;;5012481;28;20108;-64
2023/11/09 10:33:44;;;;;;;5.65;1.15;;;9.70;99.90;;;;;;4995212;28;20446;-64
2023/11/09 10:36:11;;;;;;;7.35;1.77;;;9.70;99.90;;;;;;5012841;28;20044;-64
2023/11/09 10:38:39;;;;;;;10.35;2.13;;;9.80;99.90;;;;;;5014459;28;20046;-65
2023/11/09 10:41:08;;;;;;;7.40;1.55;;;9.90;99.90;;;;;;5016322;28;20057;-64
2023/11/09 10:43:55;;;;;;;8.50;1.52;;;9.90;99.90;;;;;;5016540;28;20061;-58
2023/11/09 10:46:22;;;;;;;4.53;1.20;;;9.90;99.90;;;;;;5016447;28;20121;-58
2023/11/09 10:48:50;;;;;;;7.00;1.50;;;10.00;99.90;;;;;;5016575;28;20038;-59
2023/11/09 10:51:17;;;;;;;3.88;1.23;;;10.00;99.90;;;;;;5016170;28;20041;-58
2023/11/09 10:53:47;;;;;;;5.80;1.50;;;10.00;99.90;;;;;;5016510;28;20049;-66
2023/11/09 10:56:14;;;;;;;9.57;1.67;;;10.00;99.90;;;;;;5029903;28;20042;-65
2023/11/09 10:58:44;;;;;;;12.45;1.58;;;10.00;99.90;;;;;;5014442;28;20034;-65
2023/11/09 11:01:12;;;;;;;5.85;1.20;;;10.00;99.90;;;;;;5016348;28;20491;-59
2023/11/09 11:03:44;;;;;;;8.57;1.35;;;10.00;99.90;;;;;;5016051;28;20395;-65
2023/11/09 11:06:20;;;;;;;5.75;1.70;;;10.00;99.90;;;;;;5016494;28;20048;-59
2023/11/09 11:08:47;;;;;;;7.80;1.73;;;9.90;99.90;;;;;;5015969;28;20081;-58
2023/11/09 11:11:18;;;;;;;5.18;1.10;;;10.00;99.90;;;;;;5016148;28;20487;-65
2023/11/09 11:13:46;;;;;;;5.78;1.30;;;9.90;99.90;;;;;;5016069;28;20562;-66
2023/11/09 11:16:16;;;;;;;5.00;1.10;;;9.90;99.90;;;;;;5015966;28;20454;-65
2023/11/09 11:18:43;;;;;;;6.93;1.50;;;9.90;99.90;;;;;;5016226;28;20488;-65
2023/11/09 11:21:10;;;;;;;7.78;1.00;;;9.90;99.90;;;;;;5016877;28;20046;-59
2023/11/09 11:23:37;;;;;;;6.03;1.27;;;9.90;99.90;;;;;;5032080;28;20054;-59
2023/11/09 11:26:07;;;;;;;6.82;1.23;;;9.90;99.90;;;;;;5016936;28;20460;-58
2023/11/09 11:28:38;;;;;;;5.40;1.40;;;9.90;99.90;;;;;;5015813;28;20058;-59
2023/11/09 11:31:08;;;;;;;6.97;1.42;;;10.00;99.90;;;;;;5016221;28;20123;-59
2023/11/09 11:33:38;;;;;;;4.90;1.73;;;9.90;99.90;;;;;;5015739;28;20499;-59
2023/11/09 11:36:05;;;;;;;6.00;1.63;;;10.00;99.90;;;;;;5015493;28;20068;-59
2023/11/09 11:38:35;;;;;;;8.50;2.17;;;10.00;99.90;;;;;;5015560;28;20056;-64
2023/11/09 11:41:01;;;;;;;7.15;1.63;;;10.00;99.90;;;;;;5015481;28;20046;-65
2023/11/09 11:43:28;;;;;;;7.68;1.27;;;10.00;99.90;;;;;;5015324;28;20061;-65
2023/11/09 11:45:56;;;;;;;9.02;2.05;;;10.00;99.90;;;;;;5015449;28;20192;-59
2023/11/09 11:48:25;;;;;;;5.78;1.73;;;10.10;99.90;;;;;;5015196;28;20566;-59
2023/11/09 11:50:51;;;;;;;9.23;1.70;;;10.10;99.90;;;;;;5014524;28;20050;-59
2023/11/09 11:53:18;;;;;;;8.70;1.55;;;10.10;99.90;;;;;;5015331;28;20054;-59
2023/11/09 11:55:45;;;;;;;6.05;1.58;;;10.10;99.90;;;;;;5015232;28;20042;-65
2023/11/09 11:58:13;;;;;;;7.60;2.03;;;10.10;99.90;;;;;;5030311;28;20038;-64
2023/11/09 12:00:40;;;;;;;6.93;1.60;;;10.20;99.90;;;;;;5015273;28;20038;-58
2023/11/09 12:03:07;;;;;;;8.00;1.50;;;10.20;99.90;;;;;;5015159;28;20042;-64
2023/11/09 12:05:34;;;;;;;6.20;1.50;;;10.20;99.90;;;;;;5015139;28;20041;-57
2023/11/09 12:08:01;;;;;;;8.90;1.60;;;10.30;99.90;;;;;;5015469;28;20046;-65
2023/11/09 12:10:28;;;;;;;9.20;1.50;;;10.30;99.90;;;;;;5030520;28;20041;-65
2023/11/09 12:12:56;;;;;;;6.20;1.40;;;10.30;99.90;;;;;;5015505;28;20466;-65
2023/11/09 12:15:28;;;;;;;8.18;2.40;;;10.30;99.90;;;;;;5014899;28;20038;-65
2023/11/09 12:17:55;;;;;;;6.78;1.77;;;10.30;99.90;;;;;;5014366;28;20149;-65
2023/11/09 12:20:23;;;;;;;7.53;1.42;;;10.40;99.90;;;;;;5015203;28;20045;-65
2023/11/09 12:22:50;;;;;;;5.53;1.58;;;10.50;99.90;;;;;;5014342;28;20046;-65
2023/11/09 12:25:16;;;;;;;6.35;1.25;;;10.50;99.90;;;;;;5015251;28;20050;-59
2023/11/09 12:27:43;;;;;;;8.88;2.20;;;10.50;99.90;;;;;;5015022;28;20049;-59
2023/11/09 12:30:11;;;;;;;6.72;1.55;;;10.40;99.90;;;;;;5014555;28;20053;-65
2023/11/09 12:32:38;;;;;;;10.75;2.05;;;10.40;99.90;;;;;;5014179;28;20050;-66
2023/11/09 12:35:05;;;;;;;10.52;3.10;;;10.30;99.90;;;;;;5013830;28;20383;-65
2023/11/09 12:37:36;;;;;;;12.02;2.00;;;10.30;99.90;;;;;;5029221;28;20065;-65
2023/11/09 12:40:04;;;;;;;10.55;2.00;;;10.30;99.90;;;;;;5014737;28;20045;-59
2023/11/09 12:42:31;;;;;;;4.72;1.33;;;10.30;99.90;;;;;;5013195;28;20499;-58
2023/11/09 12:44:59;;;;;;;9.70;2.00;;;10.30;99.90;;;;;;5014133;28;20513;-60
2023/11/09 12:47:25;;;;;;;4.68;1.25;;;10.20;99.90;;;;;;5014267;28;20091;-66
2023/11/09 12:49:54;;;;;;;9.55;1.40;;;10.20;99.90;;;;;;5013928;28;20427;-60
2023/11/09 12:52:21;;;;;;;6.80;1.70;;;10.20;99.90;;;;;;5014312;28;20143;-60
2023/11/09 12:54:48;;;;;;;8.73;1.40;;;10.10;99.90;;;;;;5013717;28;20042;-60
2023/11/09 12:57:17;;;;;;;6.53;1.50;;;10.10;99.90;;;;;;5013886;28;20510;-59
2023/11/09 12:59:46;;;;;;;6.20;1.40;;;10.10;99.90;;;;;;5013717;28;20033;-60